createdAt,value
2022-09-25T00:00:53.029Z,83.56
2022-09-25T00:03:20.761Z,83.85
2022-09-25T00:05:47.780Z,83.61
2022-09-25T00:08:16.060Z,83.67
2022-09-25T00:10:44.674Z,83.63
2022-09-25T00:13:11.406Z,84.21
2022-09-25T00:15:38.417Z,83.48
2022-09-25T00:18:05.013Z,82.82
2022-09-25T00:20:31.487Z,82.63
2022-09-25T00:22:58.108Z,83.25
2022-09-25T00:25:27.302Z,83.41
2022-09-25T00:27:54.943Z,83.13
2022-09-25T00:30:21.611Z,83.18
2022-09-25T00:32:47.990Z,82.90
2022-09-25T00:35:14.379Z,83.08
2022-09-25T00:37:40.814Z,83.43
2022-09-25T00:40:08.030Z,83.58
2022-09-25T00:42:36.331Z,83.73
2022-09-25T00:45:21.929Z,84.06
2022-09-25T00:48:01.064Z,83.95
2022-09-25T00:50:38.823Z,83.94
2022-09-25T00:53:14.856Z,83.84
2022-09-25T00:55:44.209Z,83.88
2022-09-25T00:58:14.141Z,83.84
2022-09-25T01:00:41.390Z,83.62
2022-09-25T01:03:08.821Z,83.62
2022-09-25T01:05:38.995Z,83.77
2022-09-25T01:08:08.353Z,84.17
2022-09-25T01:10:36.251Z,84.12
2022-09-25T01:13:03.905Z,84.33
2022-09-25T01:15:47.682Z,84.33
2022-09-25T01:18:42.987Z,84.46
2022-09-25T01:21:43.094Z,85.05
2022-09-25T01:24:18.969Z,84.79
2022-09-25T01:27:17.005Z,85.60
2022-09-25T01:30:01.820Z,85.82
2022-09-25T01:33:10.070Z,86.31
2022-09-25T01:35:42.490Z,86.52
2022-09-25T01:38:24.077Z,86.44
2022-09-25T01:40:58.743Z,86.42
2022-09-25T01:43:34.001Z,86.72
2022-09-25T01:46:04.182Z,86.05
2022-09-25T01:48:33.691Z,85.46
2022-09-25T01:51:05.372Z,85.64
2022-09-25T01:53:39.247Z,85.19
2022-09-25T01:56:16.115Z,85.34
2022-09-25T01:58:55.417Z,84.77
2022-09-25T02:01:27.277Z,84.83
2022-09-25T02:03:58.864Z,85.17
2022-09-25T02:06:25.859Z,85.28
2022-09-25T02:09:19.266Z,85.23
2022-09-25T02:11:50.793Z,84.87
2022-09-25T02:14:26.842Z,85.84
2022-09-25T02:16:56.487Z,85.56
2022-09-25T02:19:42.636Z,85.52
2022-09-25T02:22:20.023Z,85.34
2022-09-25T02:24:59.170Z,85.39
2022-09-25T02:27:27.516Z,85.63
2022-09-25T02:29:55.675Z,85.49
2022-09-25T02:32:28.713Z,85.27
2022-09-25T02:34:56.886Z,85.00
2022-09-25T02:37:23.906Z,84.93
2022-09-25T02:39:54.548Z,85.46
2022-09-25T02:42:48.269Z,85.79
2022-09-25T02:45:14.653Z,86.54
2022-09-25T02:48:24.594Z,86.91
2022-09-25T02:51:12.155Z,86.82
2022-09-25T02:53:43.545Z,87.03
2022-09-25T02:56:36.169Z,86.78
2022-09-25T02:59:08.842Z,86.96
2022-09-25T03:01:39.769Z,86.90
2022-09-25T03:04:07.119Z,87.10
2022-09-25T03:06:33.721Z,87.35
2022-09-25T03:09:02.053Z,87.12
2022-09-25T03:11:28.620Z,87.24
2022-09-25T03:14:03.977Z,87.15
2022-09-25T03:16:35.084Z,86.58
2022-09-25T03:19:02.705Z,86.68
2022-09-25T03:21:29.322Z,86.47
2022-09-25T03:23:56.951Z,86.44
2022-09-25T03:26:24.977Z,86.77
2022-09-25T03:28:52.562Z,86.33
2022-09-25T03:31:19.501Z,86.70
2022-09-25T03:33:46.701Z,87.12
2022-09-25T03:36:21.635Z,87.20
2022-09-25T03:38:50.540Z,87.08
2022-09-25T03:41:21.327Z,86.83
2022-09-25T03:43:51.251Z,86.74
2022-09-25T03:46:21.270Z,86.65
2022-09-25T03:48:47.976Z,86.19
2022-09-25T03:51:14.748Z,86.30
2022-09-25T03:53:41.207Z,86.39
2022-09-25T03:56:11.981Z,85.89
2022-09-25T03:58:38.783Z,85.76
2022-09-25T04:01:06.191Z,86.19
2022-09-25T04:03:34.031Z,85.37
2022-09-25T04:06:04.806Z,85.76
2022-09-25T04:08:33.007Z,85.83
2022-09-25T04:11:00.085Z,86.00
2022-09-25T04:13:31.794Z,85.82
2022-09-25T04:16:00.961Z,85.59
2022-09-25T04:18:31.656Z,86.21
2022-09-25T04:21:04.097Z,86.68
2022-09-25T04:23:31.243Z,86.37
2022-09-25T04:25:58.065Z,86.53
2022-09-25T04:28:25.598Z,87.01
2022-09-25T04:30:52.210Z,86.86
2022-09-25T04:33:37.306Z,86.69
2022-09-25T04:36:05.008Z,86.99
2022-09-25T04:38:32.450Z,87.37
2022-09-25T04:41:02.864Z,87.93
2022-09-25T04:43:30.509Z,88.23
2022-09-25T04:46:04.792Z,88.14
2022-09-25T04:48:32.257Z,88.49
2022-09-25T04:50:59.006Z,88.79
2022-09-25T04:53:27.203Z,88.23
2022-09-25T04:55:55.140Z,89.09
2022-09-25T04:58:21.927Z,88.62
2022-09-25T05:00:49.210Z,88.08
2022-09-25T05:03:15.802Z,88.32
2022-09-25T05:05:42.522Z,88.48
2022-09-25T05:08:09.659Z,88.44
2022-09-25T05:10:36.090Z,88.06
2022-09-25T05:13:04.274Z,88.16
2022-09-25T05:15:32.563Z,88.04
2022-09-25T05:18:00.557Z,87.92
2022-09-25T05:20:27.169Z,87.57
2022-09-25T05:22:57.783Z,87.47
2022-09-25T05:25:25.363Z,87.35
2022-09-25T05:27:55.795Z,86.83
2022-09-25T05:30:22.886Z,86.47
2022-09-25T05:32:50.150Z,86.77
2022-09-25T05:35:18.987Z,86.38
2022-09-25T05:37:45.877Z,86.45
2022-09-25T05:40:12.765Z,87.00
2022-09-25T05:42:39.551Z,87.18
2022-09-25T05:45:07.712Z,86.21
2022-09-25T05:47:34.187Z,87.03
2022-09-25T05:50:00.622Z,87.00
2022-09-25T05:52:26.985Z,87.62
2022-09-25T05:54:53.487Z,87.55
2022-09-25T05:57:19.881Z,87.98
2022-09-25T05:59:46.310Z,88.11
2022-09-25T06:02:14.815Z,88.54
2022-09-25T06:04:41.347Z,88.72
2022-09-25T06:07:09.930Z,88.84
2022-09-25T06:09:36.403Z,88.20
2022-09-25T06:12:03.210Z,88.00
2022-09-25T06:14:30.360Z,87.89
2022-09-25T06:16:57.719Z,87.66
2022-09-25T06:19:24.280Z,87.59
2022-09-25T06:21:50.727Z,87.65
2022-09-25T06:24:17.073Z,86.97
2022-09-25T06:26:43.501Z,86.92
2022-09-25T06:29:09.916Z,86.85
2022-09-25T06:31:37.776Z,86.61
2022-09-25T06:34:04.360Z,86.45
2022-09-25T06:36:31.418Z,86.43
2022-09-25T06:38:57.990Z,86.99
2022-09-25T06:41:24.644Z,86.51
2022-09-25T06:43:52.020Z,86.48
2022-09-25T06:46:20.553Z,86.76
2022-09-25T06:48:54.444Z,86.14
2022-09-25T06:51:22.590Z,86.55
2022-09-25T06:53:53.130Z,90.39
2022-09-25T06:56:20.287Z,89.50
2022-09-25T06:58:46.762Z,84.73
2022-09-25T07:01:13.737Z,83.72
2022-09-25T07:03:47.117Z,83.36
2022-09-25T07:06:22.163Z,84.47
2022-09-25T07:08:50.254Z,84.91
2022-09-25T07:11:21.869Z,85.32
2022-09-25T07:13:51.204Z,86.91
2022-09-25T07:16:19.950Z,86.06
2022-09-25T07:18:46.840Z,86.36
2022-09-25T07:21:18.454Z,87.38
2022-09-25T07:23:48.669Z,87.28
2022-09-25T07:26:23.593Z,86.57
2022-09-25T07:28:59.041Z,87.14
2022-09-25T07:31:28.349Z,87.52
2022-09-25T07:33:57.110Z,87.99
2022-09-25T07:36:23.549Z,87.71
2022-09-25T07:38:51.227Z,87.63
2022-09-25T07:41:19.622Z,88.10
2022-09-25T07:43:46.056Z,88.32
2022-09-25T07:46:13.117Z,88.37
2022-09-25T07:48:39.791Z,88.51
2022-09-25T07:51:10.753Z,88.12
2022-09-25T07:53:38.333Z,87.61
2022-09-25T07:56:06.850Z,87.76
2022-09-25T07:58:38.830Z,86.94
2022-09-25T08:01:07.904Z,87.05
2022-09-25T08:03:34.635Z,86.69
2022-09-25T08:06:03.989Z,87.10
2022-09-25T08:08:30.999Z,86.60
2022-09-25T08:11:02.571Z,86.80
2022-09-25T08:13:32.066Z,86.18
2022-09-25T08:15:58.629Z,86.37
2022-09-25T08:18:25.079Z,87.01
2022-09-25T08:20:52.373Z,86.82
2022-09-25T08:23:18.799Z,85.66
2022-09-25T08:25:49.238Z,85.32
2022-09-25T08:28:16.043Z,84.87
2022-09-25T08:30:43.776Z,84.64
2022-09-25T08:33:15.765Z,84.88
2022-09-25T08:35:43.370Z,85.38
2022-09-25T08:38:13.837Z,86.40
2022-09-25T08:40:54.719Z,86.12
2022-09-25T08:43:23.254Z,86.73
2022-09-25T08:46:08.975Z,85.78
2022-09-25T08:49:02.194Z,84.72
2022-09-25T08:51:31.436Z,85.38
2022-09-25T08:53:59.022Z,84.22
2022-09-25T08:56:28.603Z,85.52
2022-09-25T08:59:13.720Z,85.14
2022-09-25T09:01:47.348Z,83.70
2022-09-25T09:04:32.636Z,83.57
2022-09-25T09:07:26.381Z,83.66
2022-09-25T09:09:57.917Z,83.06
2022-09-25T09:12:44.937Z,83.40
2022-09-25T09:15:42.296Z,83.70
2022-09-25T09:18:24.042Z,83.48
2022-09-25T09:20:59.128Z,83.50
2022-09-25T09:23:33.687Z,83.14
2022-09-25T09:26:03.582Z,81.94
2022-09-25T09:28:39.201Z,82.38
2022-09-25T09:31:17.054Z,82.96
2022-09-25T09:33:49.319Z,82.71
2022-09-25T09:36:30.542Z,82.27
2022-09-25T09:39:25.341Z,81.75
2022-09-25T09:41:58.181Z,81.92
2022-09-25T09:44:43.017Z,81.01
2022-09-25T09:47:25.533Z,81.21
2022-09-25T09:49:59.168Z,82.06
2022-09-25T09:52:34.063Z,81.33
2022-09-25T09:55:20.991Z,82.39
2022-09-25T09:57:52.207Z,82.80
2022-09-25T10:00:21.205Z,82.36
2022-09-25T10:02:54.078Z,82.79
2022-09-25T10:05:26.041Z,84.22
2022-09-25T10:07:53.242Z,82.73
2022-09-25T10:10:20.251Z,81.90
2022-09-25T10:12:50.958Z,82.05
2022-09-25T10:15:38.282Z,82.83
2022-09-25T10:18:06.516Z,84.35
2022-09-25T10:20:58.081Z,84.45
2022-09-25T10:23:47.777Z,84.68
2022-09-25T10:26:37.759Z,85.00
2022-09-25T10:29:25.087Z,84.28
2022-09-25T10:32:04.111Z,81.76
2022-09-25T10:34:31.854Z,81.80
2022-09-25T10:36:58.490Z,80.74
2022-09-25T10:39:44.685Z,80.70
2022-09-25T10:42:37.349Z,80.75
2022-09-25T10:45:21.961Z,81.20
2022-09-25T10:48:09.631Z,82.02
2022-09-25T10:50:38.624Z,82.98
2022-09-25T10:53:07.343Z,81.34
2022-09-25T10:55:42.503Z,81.88
2022-09-25T10:58:20.088Z,81.40
2022-09-25T11:00:47.551Z,81.39
2022-09-25T11:03:21.609Z,82.17
2022-09-25T11:05:55.094Z,80.71
2022-09-25T11:08:25.024Z,81.26
2022-09-25T11:10:57.739Z,78.14
2022-09-25T11:13:32.030Z,79.78
2022-09-25T11:16:03.222Z,78.99
2022-09-25T11:18:36.512Z,78.16
2022-09-25T11:21:05.151Z,76.72
2022-09-25T11:23:45.720Z,74.66
2022-09-25T11:26:15.033Z,73.79
2022-09-25T11:28:49.166Z,70.79
2022-09-25T11:31:30.145Z,71.39
2022-09-25T11:34:04.792Z,75.66
2022-09-25T11:36:49.170Z,75.27
2022-09-25T11:39:43.895Z,75.51
2022-09-25T11:42:18.894Z,75.46
2022-09-25T11:44:57.241Z,76.43
2022-09-25T11:48:10.845Z,76.97
2022-09-25T11:50:52.814Z,77.48
2022-09-25T11:53:33.434Z,76.51
2022-09-25T11:56:09.090Z,76.99
2022-09-25T11:59:13.407Z,78.10
2022-09-25T12:01:49.550Z,77.37
2022-09-25T12:04:25.230Z,77.32
2022-09-25T12:06:58.725Z,77.41
2022-09-25T12:10:04.915Z,77.41
2022-09-25T12:12:49.366Z,77.31
2022-09-25T12:15:20.815Z,77.19
2022-09-25T12:18:01.627Z,75.28
2022-09-25T12:20:38.742Z,74.99
2022-09-25T12:23:47.842Z,75.29
2022-09-25T12:26:33.444Z,74.33
2022-09-25T12:29:34.947Z,74.16
2022-09-25T12:32:27.063Z,74.24
2022-09-25T12:35:10.949Z,71.23
2022-09-25T12:37:49.624Z,68.82
2022-09-25T12:40:39.957Z,68.53
2022-09-25T12:43:13.338Z,70.69
2022-09-25T12:45:51.628Z,70.08
2022-09-25T12:48:43.996Z,70.10
2022-09-25T12:51:37.903Z,71.08
2022-09-25T12:54:32.393Z,71.21
2022-09-25T12:57:09.330Z,73.00
2022-09-25T13:00:10.241Z,76.14
2022-09-25T13:02:51.261Z,79.01
2022-09-25T13:05:39.739Z,80.69
2022-09-25T13:08:23.432Z,85.46
2022-09-25T13:11:03.876Z,86.44
2022-09-25T13:13:37.486Z,87.95
2022-09-25T13:16:05.137Z,89.01
2022-09-25T13:18:33.985Z,89.31
2022-09-25T13:21:23.523Z,90.04
2022-09-25T13:23:51.727Z,89.91
2022-09-25T13:26:24.285Z,90.18
2022-09-25T13:29:02.597Z,90.88
2022-09-25T13:31:34.401Z,91.18
2022-09-25T13:34:00.801Z,90.75
2022-09-25T13:36:50.312Z,90.75
2022-09-25T13:39:41.376Z,90.20
2022-09-25T13:42:28.594Z,89.17
2022-09-25T13:45:11.228Z,89.52
2022-09-25T13:47:38.338Z,89.39
2022-09-25T13:50:10.888Z,89.83
2022-09-25T13:52:40.274Z,89.37
2022-09-25T13:55:22.058Z,90.40
2022-09-25T13:57:58.235Z,90.13
2022-09-25T14:00:55.710Z,90.54
2022-09-25T14:03:30.222Z,90.74
2022-09-25T14:05:57.443Z,90.22
2022-09-25T14:08:25.835Z,91.88
2022-09-25T14:10:55.790Z,92.38
2022-09-25T14:13:25.231Z,92.24
2022-09-25T14:15:54.980Z,91.96
2022-09-25T14:18:26.595Z,91.55
2022-09-25T14:20:58.974Z,91.28
2022-09-25T14:23:29.801Z,91.43
2022-09-25T14:26:01.350Z,91.17
2022-09-25T14:28:31.065Z,89.94
2022-09-25T14:31:21.964Z,90.25
2022-09-25T14:33:53.538Z,91.22
2022-09-25T14:36:22.931Z,90.50
2022-09-25T14:39:05.586Z,89.69
2022-09-25T14:42:06.720Z,89.46
2022-09-25T14:45:00.561Z,90.29
2022-09-25T14:47:44.973Z,90.60
2022-09-25T14:50:25.152Z,91.30
2022-09-25T14:52:57.075Z,90.65
2022-09-25T14:55:27.442Z,89.33
2022-09-25T14:57:57.119Z,89.90
2022-09-25T15:00:24.648Z,90.00
2022-09-25T15:02:56.222Z,89.25
2022-09-25T15:05:25.864Z,89.05
2022-09-25T15:07:53.402Z,87.83
2022-09-25T15:10:40.239Z,87.92
2022-09-25T15:13:20.765Z,88.35
2022-09-25T15:16:10.168Z,86.59
2022-09-25T15:18:39.635Z,84.79
2022-09-25T15:21:29.074Z,84.95
2022-09-25T15:24:11.232Z,85.57
2022-09-25T15:26:48.726Z,86.28
2022-09-25T15:29:21.752Z,85.63
2022-09-25T15:31:53.574Z,85.64
2022-09-25T15:34:26.059Z,84.68
2022-09-25T15:36:53.214Z,84.59
2022-09-25T15:39:25.242Z,84.30
2022-09-25T15:41:52.064Z,84.01
2022-09-25T15:44:26.209Z,84.46
2022-09-25T15:46:58.635Z,84.57
2022-09-25T15:49:30.661Z,84.51
2022-09-25T15:52:01.641Z,83.89
2022-09-25T15:54:37.367Z,83.52
2022-09-25T15:57:13.191Z,83.47
2022-09-25T16:00:06.262Z,83.32
2022-09-25T16:02:58.225Z,82.65
2022-09-25T16:05:32.790Z,82.16
2022-09-25T16:08:29.317Z,83.06
2022-09-25T16:11:16.603Z,83.69
2022-09-25T16:13:49.083Z,83.82
2022-09-25T16:16:29.428Z,83.96
2022-09-25T16:18:57.810Z,83.79
2022-09-25T16:21:33.693Z,83.50
2022-09-25T16:24:05.686Z,83.75
2022-09-25T16:26:39.206Z,83.90
2022-09-25T16:29:13.977Z,83.30
2022-09-25T16:31:42.531Z,82.94
2022-09-25T16:34:19.532Z,82.90
2022-09-25T16:36:48.484Z,82.75
2022-09-25T16:39:26.486Z,82.30
2022-09-25T16:41:53.237Z,82.52
2022-09-25T16:44:36.965Z,81.66
2022-09-25T16:47:14.140Z,81.24
2022-09-25T16:49:40.634Z,81.86
2022-09-25T16:52:08.443Z,81.79
2022-09-25T16:54:37.366Z,82.28
2022-09-25T16:57:04.745Z,82.14
2022-09-25T16:59:31.208Z,82.52
2022-09-25T17:02:01.318Z,82.64
2022-09-25T17:04:30.449Z,82.61
2022-09-25T17:06:58.445Z,81.99
2022-09-25T17:09:28.250Z,82.19
2022-09-25T17:12:05.037Z,82.77
2022-09-25T17:14:31.633Z,82.39
2022-09-25T17:16:58.900Z,82.29
2022-09-25T17:19:25.575Z,82.02
2022-09-25T17:21:53.589Z,85.91
2022-09-25T17:24:23.696Z,84.00
2022-09-25T17:26:51.787Z,80.95
2022-09-25T17:29:19.198Z,80.14
2022-09-25T17:31:45.670Z,80.23
2022-09-25T17:34:24.318Z,80.75
2022-09-25T17:36:51.576Z,80.83
2022-09-25T17:39:18.008Z,81.23
2022-09-25T17:41:45.093Z,81.44
2022-09-25T17:44:16.694Z,81.43
2022-09-25T17:46:43.720Z,81.56
2022-09-25T17:49:11.291Z,82.10
2022-09-25T17:51:38.249Z,81.72
2022-09-25T17:54:05.903Z,81.88
2022-09-25T17:56:37.905Z,82.25
2022-09-25T17:59:05.472Z,82.39
2022-09-25T18:01:38.384Z,82.85
2022-09-25T18:04:19.978Z,82.91
2022-09-25T18:06:47.017Z,83.22
2022-09-25T18:09:13.617Z,83.56
2022-09-25T18:11:43.533Z,83.13
2022-09-25T18:14:12.217Z,83.17
2022-09-25T18:16:41.358Z,82.58
2022-09-25T18:19:33.334Z,82.89
2022-09-25T18:22:18.208Z,82.00
2022-09-25T18:24:45.963Z,81.75
2022-09-25T18:27:13.346Z,82.11
2022-09-25T18:29:40.349Z,81.89
2022-09-25T18:32:08.025Z,81.84
2022-09-25T18:34:34.452Z,81.89
2022-09-25T18:37:00.883Z,81.29
2022-09-25T18:39:27.342Z,81.50
2022-09-25T18:41:53.778Z,81.32
2022-09-25T18:44:23.324Z,81.01
2022-09-25T18:46:51.175Z,82.19
2022-09-25T18:49:19.168Z,82.07
2022-09-25T18:51:45.821Z,82.75
2022-09-25T18:54:14.330Z,83.83
2022-09-25T18:56:41.687Z,84.45
2022-09-25T18:59:08.311Z,85.13
2022-09-25T19:01:36.038Z,85.32
2022-09-25T19:04:03.410Z,85.91
2022-09-25T19:06:30.089Z,86.39
2022-09-25T19:08:57.757Z,86.90
2022-09-25T19:11:26.054Z,86.92
2022-09-25T19:13:52.879Z,87.17
2022-09-25T19:16:20.608Z,86.75
2022-09-25T19:18:47.424Z,86.21
2022-09-25T19:21:15.830Z,85.74
2022-09-25T19:23:43.559Z,86.09
2022-09-25T19:26:14.883Z,86.35
2022-09-25T19:28:41.811Z,86.17
2022-09-25T19:31:13.974Z,85.97
2022-09-25T19:33:40.462Z,85.86
2022-09-25T19:36:10.725Z,85.98
2022-09-25T19:38:38.597Z,85.56
2022-09-25T19:41:12.244Z,85.68
2022-09-25T19:43:39.792Z,85.01
2022-09-25T19:46:06.737Z,85.09
2022-09-25T19:48:33.543Z,84.90
2022-09-25T19:51:03.551Z,84.77
2022-09-25T19:53:30.061Z,83.68
2022-09-25T19:55:56.433Z,83.58
2022-09-25T19:58:23.666Z,83.56
2022-09-25T20:00:51.202Z,83.32
2022-09-25T20:03:18.198Z,82.94
2022-09-25T20:05:44.767Z,83.06
2022-09-25T20:08:11.474Z,83.13
2022-09-25T20:10:38.293Z,83.52
2022-09-25T20:13:06.076Z,84.11
2022-09-25T20:15:33.839Z,84.44
2022-09-25T20:18:00.532Z,84.32
2022-09-25T20:20:29.223Z,84.02
2022-09-25T20:22:57.531Z,84.19
2022-09-25T20:25:24.999Z,84.01
2022-09-25T20:27:52.233Z,83.41
2022-09-25T20:30:19.483Z,83.95
2022-09-25T20:32:47.725Z,84.34
2022-09-25T20:35:14.280Z,84.44
2022-09-25T20:37:40.653Z,84.96
2022-09-25T20:40:07.430Z,85.14
2022-09-25T20:42:33.934Z,85.32
2022-09-25T20:45:00.429Z,84.91
2022-09-25T20:47:33.351Z,84.65
2022-09-25T20:50:00.490Z,85.27
2022-09-25T20:52:27.738Z,85.49
2022-09-25T20:54:54.184Z,85.41
2022-09-25T20:57:20.600Z,84.97
2022-09-25T20:59:53.031Z,84.80
2022-09-25T21:02:19.522Z,84.51
2022-09-25T21:04:46.101Z,84.30
2022-09-25T21:07:16.735Z,84.25
2022-09-25T21:09:44.001Z,84.26
2022-09-25T21:12:10.427Z,84.09
2022-09-25T21:14:37.149Z,84.26
2022-09-25T21:17:03.857Z,84.58
2022-09-25T21:19:30.481Z,84.77
2022-09-25T21:21:56.871Z,85.11
2022-09-25T21:24:23.298Z,85.32
2022-09-25T21:26:50.494Z,84.71
2022-09-25T21:29:18.724Z,85.15
2022-09-25T21:31:49.678Z,84.73
2022-09-25T21:34:16.882Z,84.56
2022-09-25T21:36:45.169Z,84.72
2022-09-25T21:39:12.130Z,84.07
2022-09-25T21:41:39.188Z,84.58
2022-09-25T21:44:11.505Z,84.47
2022-09-25T21:46:37.920Z,84.26
2022-09-25T21:49:06.861Z,84.91
2022-09-25T21:51:38.607Z,84.74
2022-09-25T21:54:08.534Z,84.57
2022-09-25T21:56:35.354Z,84.19
2022-09-25T21:59:08.301Z,83.96
2022-09-25T22:01:37.263Z,84.05
2022-09-25T22:04:05.018Z,84.51
2022-09-25T22:06:37.090Z,84.21
2022-09-25T22:09:09.881Z,84.17
2022-09-25T22:11:37.549Z,84.73
2022-09-25T22:14:05.795Z,84.43
2022-09-25T22:16:35.020Z,85.66
2022-09-25T22:19:13.921Z,86.60
2022-09-25T22:21:42.585Z,86.28
2022-09-25T22:24:09.744Z,86.07
2022-09-25T22:26:38.332Z,86.19
2022-09-25T22:29:05.804Z,85.98
2022-09-25T22:31:33.825Z,86.29
2022-09-25T22:34:08.655Z,84.93
2022-09-25T22:36:36.166Z,84.29
2022-09-25T22:39:04.714Z,83.04
2022-09-25T22:41:31.977Z,82.78
2022-09-25T22:44:00.639Z,83.45
2022-09-25T22:46:27.585Z,83.98
2022-09-25T22:48:54.017Z,83.74
2022-09-25T22:51:23.003Z,83.86
2022-09-25T22:53:50.287Z,83.42
2022-09-25T22:56:21.046Z,83.15
2022-09-25T22:58:50.124Z,83.26
2022-09-25T23:01:50.728Z,82.80
2022-09-25T23:04:20.610Z,83.30
2022-09-25T23:06:48.781Z,83.64
2022-09-25T23:09:18.413Z,83.75
2022-09-25T23:11:45.655Z,83.70
2022-09-25T23:14:16.857Z,84.01
2022-09-25T23:16:44.793Z,83.63
2022-09-25T23:19:11.527Z,83.82
2022-09-25T23:21:37.935Z,83.37
2022-09-25T23:24:08.046Z,83.19
2022-09-25T23:26:34.523Z,83.14
2022-09-25T23:29:02.050Z,83.02
2022-09-25T23:31:30.474Z,83.90
2022-09-25T23:33:59.288Z,83.78
2022-09-25T23:36:26.655Z,83.92
2022-09-25T23:38:54.807Z,84.22
2022-09-25T23:41:32.674Z,84.87
2022-09-25T23:44:00.988Z,84.29
2022-09-25T23:46:31.131Z,84.36
2022-09-25T23:48:58.099Z,84.56
2022-09-25T23:51:26.148Z,84.33
2022-09-25T23:53:54.730Z,82.80
2022-09-25T23:56:28.867Z,83.74
2022-09-25T23:58:57.438Z,83.88
